Time;durP1;ratioP1;P1;durP2;ratioP2;P2;SDS_P1;SDS_P2;PMS_P1;PMS_P2;Temp;Humidity;BMP_temperature;BMP_pressure;BME280_temperature;BME280_humidity;BME280_pressure;Samples;Min_cycle;Max_cycle;Signal;HPM_P1;HPM_P2
2023/03/13 00:00:23;;;;;;;11.40;4.80;;;;;;;-1.49;100.00;100757.90;105474;1296;25945;-73
2023/03/13 00:02:54;;;;;;;15.20;5.00;;;;;;;-1.50;100.00;100754.26;105423;1296;25414;-74
2023/03/13 00:05:22;;;;;;;15.20;4.60;;;;;;;-1.50;100.00;100755.71;105382;1296;25340;-74
2023/03/13 00:07:53;;;;;;;15.50;5.60;;;;;;;-1.52;100.00;100758.26;105439;1296;26056;-74
2023/03/13 00:10:21;;;;;;;12.80;5.00;;;;;;;-1.55;100.00;100761.20;105370;1296;26761;-74
2023/03/13 00:12:50;;;;;;;10.70;4.50;;;;;;;-1.56;100.00;100760.39;105397;1296;22543;-74
2023/03/13 00:15:26;;;;;;;11.10;4.60;;;;;;;-1.59;100.00;100764.75;105460;1296;25464;-74
2023/03/13 00:17:54;;;;;;;9.80;4.90;;;;;;;-1.62;100.00;100763.88;105476;1290;24255;-74
2023/03/13 00:20:23;;;;;;;10.10;4.90;;;;;;;-1.65;100.00;100760.83;105401;1296;22555;-73
2023/03/13 00:22:51;;;;;;;9.30;4.00;;;;;;;-1.67;100.00;100762.89;105352;1296;22540;-73
2023/03/13 00:25:20;;;;;;;8.10;4.00;;;;;;;-1.69;100.00;100766.34;104664;1296;1003199;-74
2023/03/13 00:27:49;;;;;;;9.40;4.50;;;;;;;-1.73;100.00;100768.98;105435;1289;25454;-74
2023/03/13 00:30:21;;;;;;;10.00;4.70;;;;;;;-1.77;100.00;100771.48;104660;1296;1003563;-73
2023/03/13 00:32:55;;;;;;;8.00;4.10;;;;;;;-1.80;100.00;100779.40;105444;1296;25495;-75
2023/03/13 00:35:24;;;;;;;10.10;4.10;;;;;;;-1.82;100.00;100775.61;104750;1296;1003521;-73
2023/03/13 00:37:53;;;;;;;8.50;4.00;;;;;;;-1.83;100.00;100775.15;105369;1296;22659;-75
2023/03/13 00:40:26;;;;;;;9.20;4.60;;;;;;;-1.85;100.00;100784.45;105643;1296;22557;-73
2023/03/13 00:42:56;;;;;;;8.70;4.40;;;;;;;-1.88;100.00;100787.74;108478;1296;22936;-72
2023/03/13 00:45:25;;;;;;;9.80;4.50;;;;;;;-1.90;100.00;100792.10;106746;1296;25508;-74
2023/03/13 00:47:54;;;;;;;7.30;3.80;;;;;;;-1.92;100.00;100795.17;104992;1296;1003038;-74
2023/03/13 00:50:27;;;;;;;7.40;3.60;;;;;;;-1.97;100.00;100801.97;105447;1296;25451;-74
2023/03/13 00:52:56;;;;;;;6.00;3.60;;;;;;;-2.02;100.00;100804.84;105516;1296;26566;-74
2023/03/13 00:55:24;;;;;;;6.70;3.50;;;;;;;-2.06;100.00;100801.67;104664;1296;1003810;-75
2023/03/13 00:57:53;;;;;;;6.10;3.90;;;;;;;-2.10;100.00;100803.95;105431;1296;24320;-74
2023/03/13 01:00:22;;;;;;;8.80;4.30;;;;;;;-2.14;100.00;100802.58;105483;1296;22539;-74
2023/03/13 01:02:53;;;;;;;8.90;3.70;;;;;;;-2.18;100.00;100811.04;104708;1296;1003316;-73
2023/03/13 01:05:22;;;;;;;7.70;3.60;;;;;;;-2.22;100.00;100812.14;105434;1296;23939;-73
2023/03/13 01:07:51;;;;;;;11.10;4.10;;;;;;;-2.26;100.00;100814.63;105347;1296;22549;-72
2023/03/13 01:10:25;;;;;;;7.40;3.90;;;;;;;-2.29;100.00;100822.14;105390;1296;25450;-73
2023/03/13 01:12:55;;;;;;;11.20;4.20;;;;;;;-2.30;100.00;100817.93;105424;1296;23908;-74
2023/03/13 01:15:25;;;;;;;10.40;4.30;;;;;;;-2.31;100.00;100816.73;105370;1296;24047;-73
2023/03/13 01:17:54;;;;;;;9.40;4.40;;;;;;;-2.33;100.00;100819.84;105427;1296;25459;-73
2023/03/13 01:20:28;;;;;;;10.10;4.60;;;;;;;-2.36;100.00;100818.77;105370;1296;22773;-74
2023/03/13 01:22:58;;;;;;;10.70;4.40;;;;;;;-2.37;100.00;100825.15;104671;1296;1003668;-73
2023/03/13 01:25:36;;;;;;;12.10;4.70;;;;;;;-2.34;100.00;100834.04;105339;1296;25496;-72
2023/03/13 01:28:11;;;;;;;10.80;4.20;;;;;;;-2.30;100.00;100839.16;105359;1296;26993;-73
2023/03/13 01:30:39;;;;;;;10.30;4.50;;;;;;;-2.26;100.00;100839.34;105377;1296;23940;-73
2023/03/13 01:33:17;;;;;;;9.50;4.00;;;;;;;-2.24;100.00;100846.30;105400;1296;25449;-74
2023/03/13 01:35:51;;;;;;;7.80;4.70;;;;;;;-2.23;100.00;100850.50;105628;1296;25983;-73
2023/03/13 01:38:20;;;;;;;8.00;4.40;;;;;;;-2.23;100.00;100848.71;105529;1296;23896;-73
2023/03/13 01:40:50;;;;;;;9.50;4.30;;;;;;;-2.22;100.00;100851.34;104745;1296;1003515;-75
2023/03/13 01:43:20;;;;;;;7.30;4.00;;;;;;;-2.22;100.00;100857.34;105449;1296;26735;-75
2023/03/13 01:46:00;;;;;;;7.10;4.00;;;;;;;-2.23;100.00;100863.39;105358;1296;22550;-74
2023/03/13 01:49:15;;;;;;;11.60;3.70;;;;;;;-2.34;100.00;100868.44;105303;1289;26600;-73
2023/03/13 01:52:03;;;;;;;7.80;3.90;;;;;;;-2.40;100.00;100891.52;105458;1296;26684;-74
2023/03/13 01:55:15;;;;;;;7.50;3.60;;;;;;;-2.42;100.00;100878.73;105378;1296;25382;-74
2023/03/13 01:57:49;;;;;;;7.20;3.50;;;;;;;-2.42;100.00;100895.83;105459;1296;25992;-74
2023/03/13 02:00:23;;;;;;;;;;;;;;;-2.42;100.00;100885.08;105336;1296;25425;-74
2023/03/13 02:02:54;;;;;;;5.50;3.40;;;;;;;-2.41;100.00;100887.86;105420;1296;25378;-74
2023/03/13 02:05:25;;;;;;;5.20;3.20;;;;;;;-2.40;100.00;100890.27;104576;1297;1003246;-73
2023/03/13 02:07:58;;;;;;;5.00;3.20;;;;;;;-2.40;100.00;100895.95;105331;1296;22548;-73
2023/03/13 02:10:27;;;;;;;6.50;3.60;;;;;;;-2.42;100.00;100905.05;104748;1296;1003330;-73
2023/03/13 02:12:58;;;;;;;6.40;3.20;;;;;;;-2.42;100.00;100905.56;105390;1296;22543;-73
2023/03/13 02:15:30;;;;;;;4.70;3.30;;;;;;;-2.43;100.00;100913.56;104594;1296;1003000;-74
2023/03/13 02:17:59;;;;;;;6.30;3.60;;;;;;;-2.45;100.00;100911.88;104583;1297;1003775;-73
2023/03/13 02:20:34;;;;;;;6.10;3.80;;;;;;;-2.43;100.00;100919.75;104584;1296;1003744;-73
2023/03/13 02:23:42;;;;;;;;;;;;;;;-2.43;100.00;100922.37;105422;1296;24025;-73
2023/03/13 02:26:11;;;;;;;4.60;3.30;;;;;;;-2.48;100.00;100943.77;104809;1301;25462;-75
2023/03/13 02:28:45;;;;;;;7.60;4.30;;;;;;;-2.49;100.00;100935.17;105181;1296;25540;-75
2023/03/13 02:31:18;;;;;;;6.70;3.90;;;;;;;-2.47;100.00;100935.98;104425;1296;1002845;-73
2023/03/13 02:33:47;;;;;;;9.10;3.70;;;;;;;-2.45;100.00;100934.64;105348;1296;25387;-73
2023/03/13 02:36:19;;;;;;;7.50;4.20;;;;;;;-2.43;100.00;100946.77;105303;1296;25485;-73
2023/03/13 02:38:58;;;;;;;8.20;4.30;;;;;;;-2.42;100.00;100945.98;105510;1296;23925;-73
2023/03/13 02:41:27;;;;;;;8.80;4.10;;;;;;;-2.40;100.00;100951.20;105222;1296;25470;-72
2023/03/13 02:44:00;;;;;;;9.40;4.30;;;;;;;-2.41;100.00;100948.95;105314;1296;25486;-74
2023/03/13 02:46:31;;;;;;;8.30;4.40;;;;;;;-2.42;100.00;100951.81;104640;1296;1002890;-73
2023/03/13 02:49:19;;;;;;;14.30;5.10;;;;;;;-2.42;100.00;100953.59;105315;1296;25449;-73
2023/03/13 02:51:48;;;;;;;10.20;4.90;;;;;;;-2.41;100.00;100969.23;105324;1297;26702;-73
2023/03/13 02:54:31;;;;;;;12.00;4.60;;;;;;;-2.42;100.00;100967.71;105381;1296;25274;-73
2023/03/13 02:57:00;;;;;;;13.00;5.00;;;;;;;-2.45;100.00;100968.19;105304;1296;22721;-73
2023/03/13 02:59:29;;;;;;;13.70;4.80;;;;;;;-2.46;100.00;100966.84;105391;1296;25562;-72
2023/03/13 03:01:58;;;;;;;10.10;4.60;;;;;;;-2.49;100.00;100969.93;105307;1296;23692;-73
2023/03/13 03:04:27;;;;;;;13.80;5.00;;;;;;;-2.50;100.00;100977.40;105389;1296;25375;-73
2023/03/13 03:06:56;;;;;;;12.80;4.60;;;;;;;-2.54;100.00;100984.97;105421;1296;25433;-74
2023/03/13 03:09:25;;;;;;;13.60;5.70;;;;;;;-2.59;100.00;100988.39;105299;1296;25437;-73
2023/03/13 03:12:02;;;;;;;10.30;4.90;;;;;;;-2.68;100.00;100994.92;104639;1296;1002885;-75
2023/03/13 03:14:33;;;;;;;10.90;4.60;;;;;;;-2.76;100.00;100998.92;106203;1296;23396;-71
2023/03/13 03:17:02;;;;;;;10.30;4.10;;;;;;;-2.82;100.00;101003.08;107636;1296;25451;-73
2023/03/13 03:19:37;;;;;;;11.60;4.40;;;;;;;-2.90;100.00;101007.45;105964;1296;25545;-73
2023/03/13 03:22:06;;;;;;;10.50;4.30;;;;;;;-2.95;100.00;101009.06;104700;1296;1003266;-73
2023/03/13 03:24:35;;;;;;;9.30;4.90;;;;;;;-2.96;100.00;101012.27;105401;1296;22556;-71
2023/03/13 03:27:04;;;;;;;8.60;4.00;;;;;;;-2.94;100.00;101013.96;104644;1296;1003204;-73
2023/03/13 03:29:37;;;;;;;7.40;4.10;;;;;;;-2.88;100.00;101018.31;104716;1296;1003147;-72
2023/03/13 03:32:06;;;;;;;7.30;3.90;;;;;;;-2.85;100.00;101015.17;104777;1296;1005481;-74
2023/03/13 03:34:35;;;;;;;7.00;3.70;;;;;;;-2.84;100.00;101015.68;105384;1296;24179;-71
2023/03/13 03:37:06;;;;;;;9.70;3.80;;;;;;;-2.83;100.00;101023.74;105447;1296;25568;-73
2023/03/13 03:39:36;;;;;;;7.20;3.50;;;;;;;-2.82;100.00;101027.79;105419;1296;23843;-73
2023/03/13 03:42:05;;;;;;;9.90;4.10;;;;;;;-2.85;100.00;101032.33;105409;1296;25469;-73
2023/03/13 03:44:35;;;;;;;6.60;3.60;;;;;;;-2.89;100.00;101037.40;104600;1296;1003361;-72
2023/03/13 03:47:04;;;;;;;11.10;4.20;;;;;;;-2.90;100.00;101043.98;105345;1296;25496;-73
2023/03/13 03:49:36;;;;;;;5.60;3.70;;;;;;;-2.93;100.00;101056.95;105495;1296;25970;-74
2023/03/13 03:52:05;;;;;;;7.70;3.90;;;;;;;-2.96;100.00;101058.48;105333;1296;24313;-72
2023/03/13 03:54:38;;;;;;;7.50;3.80;;;;;;;-2.98;100.00;101061.24;105450;1296;25455;-73
2023/03/13 03:57:06;;;;;;;6.00;3.60;;;;;;;-3.00;100.00;101066.62;105280;1296;22553;-75
2023/03/13 03:59:38;;;;;;;9.30;4.10;;;;;;;-3.01;100.00;101067.01;104665;1296;1002870;-74
2023/03/13 04:02:08;;;;;;;10.50;4.60;;;;;;;-3.03;100.00;101078.69;105248;1296;23107;-73
2023/03/13 04:04:37;;;;;;;11.10;4.80;;;;;;;-3.04;100.00;101078.05;104780;1296;1003382;-74
2023/03/13 04:07:13;;;;;;;11.00;5.00;;;;;;;-3.04;100.00;101086.34;105334;1296;26591;-73
2023/03/13 04:09:41;;;;;;;13.30;5.00;;;;;;;-3.01;100.00;101087.83;105466;1296;22555;-74
2023/03/13 04:12:17;;;;;;;14.40;5.90;;;;;;;-2.96;100.00;101098.21;105427;1296;23832;-74
2023/03/13 04:14:47;;;;;;;13.70;6.30;;;;;;;-2.94;100.00;101099.89;105383;1296;26659;-73
2023/03/13 04:17:16;;;;;;;14.00;6.10;;;;;;;-2.91;100.00;101099.92;105357;1296;22575;-72
2023/03/13 04:19:47;;;;;;;10.60;5.20;;;;;;;-2.88;100.00;101111.14;105419;1296;25314;-74
2023/03/13 04:22:16;;;;;;;11.70;5.40;;;;;;;-2.87;100.00;101114.27;104779;1296;1003835;-73
2023/03/13 04:24:50;;;;;;;11.20;4.70;;;;;;;-2.85;100.00;101124.60;105362;1296;22565;-72
2023/03/13 04:27:20;;;;;;;12.70;5.90;;;;;;;-2.82;100.00;101126.11;105451;1296;25502;-74
2023/03/13 04:29:50;;;;;;;11.40;5.10;;;;;;;-2.80;100.00;101127.61;105366;1288;22608;-76
2023/03/13 04:32:36;;;;;;;12.00;5.20;;;;;;;-2.78;100.00;101140.08;104469;1296;1002988;-75
2023/03/13 04:35:23;;;;;;;9.20;4.70;;;;;;;-2.78;100.00;101151.86;104756;1296;1002871;-73
2023/03/13 04:38:22;;;;;;;7.10;4.50;;;;;;;-2.78;100.00;101162.28;104915;1296;26057;-73
2023/03/13 04:40:59;;;;;;;8.20;4.20;;;;;;;-2.79;100.00;101160.20;105511;1296;25993;-73
2023/03/13 04:43:57;;;;;;;8.40;3.80;;;;;;;-2.79;100.00;101178.21;104895;1296;25303;-75
2023/03/13 04:47:02;;;;;;;9.90;4.20;;;;;;;-2.81;100.00;101185.34;103921;1305;1003768;-72
2023/03/13 04:49:40;;;;;;;11.70;4.60;;;;;;;-2.83;100.00;101179.06;105141;1296;23148;-73
2023/03/13 04:52:24;;;;;;;16.60;6.50;;;;;;;-2.83;100.00;101187.54;105348;1296;22552;-73
2023/03/13 04:55:16;;;;;;;16.80;6.50;;;;;;;-2.82;100.00;101192.98;105368;1296;25989;-73
2023/03/13 04:57:58;;;;;;;12.30;5.80;;;;;;;-2.80;100.00;101197.83;104654;1296;1003573;-73
2023/03/13 05:01:00;;;;;;;14.60;6.00;;;;;;;-2.77;100.00;101211.81;104467;1296;1003102;-73
2023/03/13 05:03:47;;;;;;;14.20;5.20;;;;;;;-2.72;100.00;101207.61;105403;1296;25975;-72
2023/03/13 05:06:51;;;;;;;10.10;5.00;;;;;;;-2.64;100.00;101219.30;103953;1304;1002839;-73
2023/03/13 05:09:47;;;;;;;14.70;6.00;;;;;;;-2.52;100.00;101220.25;105132;1296;25500;-73
2023/03/13 05:12:39;;;;;;;11.90;5.30;;;;;;;-2.38;100.00;101221.14;105008;1296;23383;-73
2023/03/13 05:15:24;;;;;;;13.70;6.30;;;;;;;-2.24;100.00;101223.06;104946;1296;1003564;-73
2023/03/13 05:18:12;;;;;;;13.80;6.70;;;;;;;-2.09;100.00;101227.08;105787;1296;25542;-73
2023/03/13 05:21:07;;;;;;;17.30;6.60;;;;;;;-1.92;100.00;101229.92;105424;1296;26544;-72
2023/03/13 05:23:55;;;;;;;16.20;7.00;;;;;;;-1.73;100.00;101232.33;105421;1296;23190;-74
2023/03/13 05:26:51;;;;;;;22.30;7.70;;;;;;;-1.54;100.00;101242.52;105512;1296;22674;-74
2023/03/13 05:29:31;;;;;;;17.20;7.20;;;;;;;-1.37;100.00;101240.92;104615;1296;1003064;-74
2023/03/13 05:32:11;;;;;;;23.30;8.00;;;;;;;-1.22;100.00;101245.05;105445;1296;25488;-75
2023/03/13 05:34:58;;;;;;;20.90;8.50;;;;;;;-1.07;100.00;101253.80;105339;1296;25395;-76
2023/03/13 05:37:50;;;;;;;19.70;8.20;;;;;;;-0.92;100.00;101260.23;104688;1296;1002926;-76
2023/03/13 05:40:57;;;;;;;23.50;9.20;;;;;;;-0.78;100.00;101276.59;105408;1296;22559;-73
2023/03/13 05:43:38;;;;;;;20.30;8.30;;;;;;;-0.65;100.00;101278.13;105435;1296;25987;-73
2023/03/13 05:46:33;;;;;;;27.70;11.40;;;;;;;-0.48;100.00;101286.77;104581;1296;1002941;-76
2023/03/13 05:49:25;;;;;;;25.30;10.40;;;;;;;-0.33;100.00;101287.01;108711;1297;22532;-73
2023/03/13 05:52:23;;;;;;;23.10;9.60;;;;;;;-0.19;100.00;101299.98;106877;1296;1002563;-74
2023/03/13 05:55:11;;;;;;;19.40;8.20;;;;;;;-0.07;100.00;101299.41;105685;1296;25498;-76
2023/03/13 05:58:03;;;;;;;13.20;6.00;;;;;;;0.05;100.00;101307.74;105676;1289;25463;-73
2023/03/13 06:01:07;;;;;;;13.90;6.40;;;;;;;0.14;100.00;101315.98;105332;1296;23791;-75
2023/03/13 06:03:55;;;;;;;15.90;6.60;;;;;;;0.27;100.00;101315.92;105330;1289;24282;-76
2023/03/13 06:06:25;;;;;;;11.30;5.00;;;;;;;0.38;100.00;101305.96;105165;1297;188863;-73
2023/03/13 06:09:02;;;;;;;8.20;4.40;;;;;;;0.45;100.00;101310.94;105495;1289;26539;-73
2023/03/13 06:11:34;;;;;;;7.00;4.30;;;;;;;0.50;100.00;101315.89;104730;1289;1002872;-76
2023/03/13 06:14:04;;;;;;;7.70;4.00;;;;;;;0.55;100.00;101329.31;105450;1289;25978;-75
2023/03/13 06:16:42;;;;;;;8.00;3.90;;;;;;;0.65;100.00;101342.45;105431;1296;25493;-74
2023/03/13 06:19:21;;;;;;;6.40;3.90;;;;;;;0.79;100.00;101355.41;105354;1296;22578;-72
2023/03/13 06:21:52;;;;;;;7.20;3.50;;;;;;;0.91;100.00;101363.70;105448;1296;24245;-74
2023/03/13 06:24:21;;;;;;;4.90;3.10;;;;;;;0.97;100.00;101375.51;105561;1296;23014;-73
2023/03/13 06:26:50;;;;;;;5.30;3.00;;;;;;;1.02;100.00;101383.08;104705;1296;1003761;-73
2023/03/13 06:29:20;;;;;;;2.80;2.60;;;;;;;1.06;100.00;101399.38;105484;1296;26783;-74
2023/03/13 06:31:52;;;;;;;7.20;3.10;;;;;;;1.09;100.00;101408.80;105553;1296;23287;-73
2023/03/13 06:34:21;;;;;;;3.10;2.60;;;;;;;1.15;100.00;101421.63;104843;1290;1003029;-74
2023/03/13 06:36:50;;;;;;;3.50;2.70;;;;;;;1.25;100.00;101421.70;104737;1296;1003821;-74
2023/03/13 06:39:18;;;;;;;17.80;7.30;;;;;;;1.36;100.00;101413.86;105636;1296;25440;-80
2023/03/13 06:41:48;;;;;;;21.10;8.30;;;;;;;1.49;100.00;101395.23;106113;1296;25456;-81
2023/03/13 06:44:17;;;;;;;4.00;2.70;;;;;;;1.63;100.00;101386.16;105302;1296;1002907;-75
2023/03/13 06:46:48;;;;;;;6.80;2.90;;;;;;;1.75;100.00;101397.08;105471;1293;25463;-74
2023/03/13 06:49:18;;;;;;;4.70;2.70;;;;;;;1.92;100.00;101402.77;105590;1296;1003302;-82
2023/03/13 06:51:52;;;;;;;4.00;2.70;;;;;;;2.05;100.00;101414.20;106145;1296;1003271;-83
2023/03/13 06:54:21;;;;;;;8.70;3.70;;;;;;;2.10;100.00;101430.95;107571;1296;22499;-85
2023/03/13 06:56:52;;;;;;;2.90;2.30;;;;;;;2.22;100.00;101450.27;106204;1296;1002798;-81
2023/03/13 06:59:21;;;;;;;4.50;2.30;;;;;;;2.35;100.00;101460.95;107164;1296;25268;-78
2023/03/13 07:01:53;;;;;;;3.70;2.10;;;;;;;2.45;100.00;101479.63;105795;1289;1003084;-81
2023/03/13 07:04:32;;;;;;;3.60;2.20;;;;;;;2.54;100.00;101490.35;107516;1296;22656;-78
2023/03/13 07:07:05;;;;;;;4.10;2.90;;;;;;;2.65;100.00;101494.04;106538;1292;23959;-73
2023/03/13 07:09:34;;;;;;;3.50;2.30;;;;;;;2.85;100.00;101496.33;104817;1273;1003702;-72
2023/03/13 07:12:04;;;;;;;10.70;4.80;;;;;;;3.06;100.00;101488.00;105553;1293;22787;-73
2023/03/13 07:14:34;;;;;;;4.40;2.40;;;;;;;3.25;100.00;101490.33;105492;1289;25341;-72
2023/03/13 07:17:03;;;;;;;3.20;1.90;;;;;;;3.35;100.00;101502.77;104777;1296;1003007;-71
2023/03/13 07:19:32;;;;;;;11.60;4.20;;;;;;;3.46;100.00;101505.36;104825;1296;1003187;-70
2023/03/13 07:22:00;;;;;;;5.40;3.10;;;;;;;3.61;100.00;101490.92;105917;1296;22605;-72
2023/03/13 07:24:31;;;;;;;4.80;2.00;;;;;;;3.79;100.00;101478.05;105852;1289;24583;-67
2023/03/13 07:27:00;;;;;;;2.90;2.50;;;;;;;3.91;100.00;101464.65;105642;1290;25436;-68
2023/03/13 07:29:35;;;;;;;1.70;1.50;;;;;;;4.09;100.00;101450.92;105606;1290;25505;-67
2023/03/13 07:32:05;;;;;;;3.80;1.80;;;;;;;4.23;100.00;101438.42;105662;1296;25481;-71
2023/03/13 07:34:33;;;;;;;55.30;29.70;;;;;;;4.26;100.00;101413.83;105327;1273;25639;-67
2023/03/13 07:37:03;;;;;;;12.80;5.90;;;;;;;4.30;100.00;101394.23;105561;1296;25479;-69
2023/03/13 07:39:32;;;;;;;9.10;4.30;;;;;;;4.56;100.00;101384.42;106364;1289;25546;-71
2023/03/13 07:42:06;;;;;;;3.40;2.50;;;;;;;4.80;100.00;101369.27;105962;1292;22611;-69
2023/03/13 07:44:37;;;;;;;9.40;4.10;;;;;;;4.98;100.00;101351.46;105491;1296;23664;-66
2023/03/13 07:47:06;;;;;;;3.20;2.20;;;;;;;5.00;100.00;101321.48;105041;1289;1003141;-72
2023/03/13 07:49:40;;;;;;;9.30;3.80;;;;;;;5.05;100.00;101294.84;105560;1289;25485;-72
2023/03/13 07:52:08;;;;;;;3.00;1.90;;;;;;;5.20;100.00;101262.75;105838;1289;25273;-69
2023/03/13 07:54:41;;;;;;;19.60;6.50;;;;;;;5.31;100.00;101231.19;107014;1289;25504;-69
2023/03/13 07:57:11;;;;;;;3.10;1.90;;;;;;;5.41;100.00;101207.44;104629;1290;1003608;-67
2023/03/13 07:59:43;;;;;;;1.10;1.10;;;;;;;5.47;100.00;101173.21;105715;1293;22737;-71
2023/03/13 08:02:21;;;;;;;1.30;1.10;;;;;;;5.38;100.00;101116.09;105969;1293;22609;-67
2023/03/13 08:04:52;;;;;;;4.40;1.30;;;;;;;5.29;100.00;101077.80;105660;1296;25492;-67
2023/03/13 08:07:22;;;;;;;2.40;1.80;;;;;;;5.20;100.00;101042.48;105528;1296;25431;-66
2023/03/13 08:09:51;;;;;;;5.10;2.10;;;;;;;5.16;100.00;101014.16;104841;1296;1003865;-71
2023/03/13 08:12:22;;;;;;;2.40;1.40;;;;;;;5.21;100.00;101002.39;105607;1290;25386;-66
2023/03/13 08:14:50;;;;;;;7.60;2.80;;;;;;;5.29;100.00;101002.85;105544;1293;22553;-68
2023/03/13 08:17:21;;;;;;;2.50;1.40;;;;;;;5.46;100.00;101013.36;105730;1292;25448;-67
2023/03/13 08:19:51;;;;;;;3.30;2.30;;;;;;;5.56;100.00;101021.08;105808;1290;26525;-68
2023/03/13 08:22:20;;;;;;;3.50;2.20;;;;;;;5.58;100.00;101025.41;105612;1288;25466;-70
2023/03/13 08:24:49;;;;;;;2.50;2.00;;;;;;;5.64;100.00;101034.98;105488;1296;22571;-65
2023/03/13 08:27:19;;;;;;;3.70;2.20;;;;;;;5.64;100.00;100999.75;105662;1289;25378;-66
2023/03/13 08:29:47;;;;;;;2.80;1.80;;;;;;;5.63;100.00;100986.56;105557;1290;25497;-66
2023/03/13 08:32:20;;;;;;;4.40;2.20;;;;;;;5.55;100.00;100944.23;105811;1289;23823;-65
2023/03/13 08:34:50;;;;;;;2.30;1.70;;;;;;;5.60;100.00;100934.34;107103;1289;24344;-66
2023/03/13 08:37:18;;;;;;;2.60;1.80;;;;;;;5.60;100.00;100927.96;108350;1297;22518;-67
2023/03/13 08:39:47;;;;;;;1.80;1.70;;;;;;;5.58;100.00;100915.96;105856;1296;22555;-67
2023/03/13 08:42:16;;;;;;;1.60;1.50;;;;;;;5.59;100.00;100913.21;105452;1296;25441;-71
2023/03/13 08:44:47;;;;;;;5.90;3.00;;;;;;;5.60;100.00;100893.39;105857;1296;26657;-75
2023/03/13 08:47:17;;;;;;;8.20;2.90;;;;;;;5.65;100.00;100896.96;106197;1296;22549;-76
2023/03/13 08:49:45;;;;;;;3.10;1.70;;;;;;;5.88;100.00;100884.10;106370;1289;25445;-68
2023/03/13 08:52:14;;;;;;;7.80;3.70;;;;;;;6.01;100.00;100890.98;105589;1290;22556;-68
2023/03/13 08:54:43;;;;;;;7.50;3.60;;;;;;;6.05;100.00;100898.69;105619;1296;24321;-68
2023/03/13 08:57:11;;;;;;;3.20;1.80;;;;;;;6.15;100.00;100901.32;104849;1296;1015601;-67
2023/03/13 08:59:40;;;;;;;5.30;2.80;;;;;;;6.09;100.00;100902.50;105722;1296;25391;-69
2023/03/13 09:02:17;;;;;;;2.00;1.90;;;;;;;6.05;100.00;100903.20;105743;1296;23252;-69
2023/03/13 09:04:47;;;;;;;1.40;1.30;;;;;;;6.00;100.00;100893.98;105256;1296;22723;-70
2023/03/13 09:07:16;;;;;;;2.30;2.10;;;;;;;5.98;100.00;100892.13;104631;1296;1003644;-68
2023/03/13 09:09:44;;;;;;;4.40;2.50;;;;;;;6.09;100.00;100881.25;105542;1296;22593;-70
2023/03/13 09:12:13;;;;;;;1.70;1.50;;;;;;;6.16;100.00;100869.47;105615;1289;25521;-69
2023/03/13 09:15:04;;;;;;;5.00;2.10;;;;;;;6.31;100.00;100848.84;105618;1295;25425;-72
2023/03/13 09:17:35;;;;;;;3.10;2.30;;;;;;;6.43;100.00;100839.66;105601;1295;25416;-70
2023/03/13 09:20:05;;;;;;;3.20;2.00;;;;;;;6.56;100.00;100833.09;105665;1290;25456;-70
2023/03/13 09:22:34;;;;;;;1.40;1.30;;;;;;;6.62;100.00;100825.92;105488;1289;25506;-70
2023/03/13 09:25:02;;;;;;;3.30;1.50;;;;;;;6.62;100.00;100814.49;105581;1296;25538;-71
2023/03/13 09:27:39;;;;;;;9.00;4.40;;;;;;;6.67;100.00;100801.39;105613;1289;25557;-71
2023/03/13 09:30:10;;;;;;;29.30;9.80;;;;;;;6.87;100.00;100771.42;105620;1296;24207;-70
2023/03/13 09:32:39;;;;;;;35.10;13.60;;;;;;;7.22;100.00;100735.72;104900;1290;1003477;-70
2023/03/13 09:35:08;;;;;;;5.30;2.80;;;;;;;7.53;100.00;100719.25;105699;1290;23539;-69
2023/03/13 09:37:37;;;;;;;9.10;3.80;;;;;;;7.72;100.00;100705.05;105694;1288;22545;-69
2023/03/13 09:40:09;;;;;;;21.10;8.40;;;;;;;7.78;100.00;100683.70;105652;1289;22492;-70
2023/03/13 09:42:45;;;;;;;10.20;4.60;;;;;;;7.83;100.00;100618.39;104955;1290;1002868;-70
2023/03/13 09:45:34;;;;;;;15.30;6.50;;;;;;;8.01;100.00;100503.52;105826;1289;22649;-71
2023/03/13 09:48:38;;;;;;;8.70;3.40;;;;;;;8.20;100.00;100434.98;105749;1293;25383;-71
2023/03/13 09:51:20;;;;;;;4.40;2.50;;;;;;;8.41;100.00;100403.14;105325;1289;25382;-70
2023/03/13 09:53:53;;;;;;;6.80;3.50;;;;;;;8.44;100.00;100412.02;105715;1293;25389;-70
2023/03/13 09:56:24;;;;;;;4.20;2.90;;;;;;;8.30;100.00;100426.11;105670;1296;23845;-78
2023/03/13 09:58:55;;;;;;;6.50;3.60;;;;;;;8.08;100.00;100483.33;105233;1296;23576;-69
2023/03/13 10:01:27;;;;;;;7.00;3.10;;;;;;;7.90;100.00;100558.52;105644;1287;22543;-70
2023/03/13 10:04:38;;;;;;;5.70;2.70;;;;;;;7.79;100.00;100587.94;105618;1295;24239;-72
2023/03/13 10:07:12;;;;;;;5.20;2.40;;;;;;;7.76;100.00;100614.24;105618;1290;24259;-73
2023/03/13 10:09:41;;;;;;;3.20;2.10;;;;;;;7.77;100.00;100650.91;105849;1289;23420;-73
2023/03/13 10:12:20;;;;;;;8.70;3.10;;;;;;;7.77;100.00;100683.76;105486;1289;22485;-77
2023/03/13 10:15:12;;;;;;;;;;;;;;;8.03;100.00;100673.90;105907;1292;26092;-70
2023/03/13 10:17:41;;;;;;;7.40;3.30;;;;;;;8.26;100.00;100672.34;105651;1288;25528;-71
2023/03/13 10:20:15;;;;;;;11.50;3.70;;;;;;;8.31;100.00;100704.79;106904;1290;22621;-77
2023/03/13 10:22:47;;;;;;;9.30;3.70;;;;;;;7.97;100.00;100762.78;106179;1289;22585;-80
2023/03/13 10:25:33;;;;;;;5.80;3.10;;;;;;;7.84;100.00;100752.45;107312;1296;22582;-80
2023/03/13 10:28:04;;;;;;;4.70;2.80;;;;;;;8.10;100.00;100746.19;106093;1293;26538;-79
2023/03/13 10:30:34;;;;;;;5.90;2.90;;;;;;;8.12;100.00;100776.73;105781;1289;26694;-80
2023/03/13 10:33:07;;;;;;;3.10;2.40;;;;;;;8.21;100.00;100785.95;105465;1289;24078;-79
2023/03/13 10:35:38;;;;;;;8.20;3.60;;;;;;;8.17;100.00;100821.19;105657;1289;22546;-78
2023/03/13 10:38:14;;;;;;;8.10;4.20;;;;;;;8.12;100.00;100826.47;105701;1289;22617;-78
2023/03/13 10:41:00;;;;;;;14.30;6.60;;;;;;;8.09;100.00;100822.05;105791;1289;25274;-77
2023/03/13 10:43:29;;;;;;;12.40;4.90;;;;;;;8.22;100.00;100812.60;105701;1288;26702;-81
2023/03/13 10:46:23;;;;;;;8.20;4.70;;;;;;;8.19;100.00;100836.95;105794;1293;26545;-72
2023/03/13 10:48:54;;;;;;;13.70;5.80;;;;;;;8.12;100.00;100845.30;105464;1296;25409;-72
2023/03/13 10:51:30;;;;;;;12.70;5.50;;;;;;;8.07;100.00;100845.05;105719;1289;23361;-70
2023/03/13 10:53:59;;;;;;;12.40;5.60;;;;;;;8.08;100.00;100841.91;105351;1288;22588;-72
2023/03/13 10:56:29;;;;;;;16.10;5.80;;;;;;;8.15;100.00;100847.52;105263;1293;25482;-70
2023/03/13 10:58:57;;;;;;;14.60;6.30;;;;;;;8.13;100.00;100870.68;105680;1287;25441;-72
2023/03/13 11:01:38;;;;;;;12.90;5.90;;;;;;;8.14;100.00;100873.67;104919;1293;1002964;-69
2023/03/13 11:04:31;;;;;;;11.90;5.40;;;;;;;8.08;100.00;100906.15;106300;1295;22548;-79
2023/03/13 11:07:14;;;;;;;9.90;5.20;;;;;;;8.13;100.00;100888.15;107555;1292;22706;-77
2023/03/13 11:10:17;;;;;;;10.50;5.10;;;;;;;8.44;100.00;100859.73;107745;1288;22691;-70
2023/03/13 11:12:54;;;;;;;13.00;5.00;;;;;;;8.73;100.00;100888.48;106084;1287;25248;-70
2023/03/13 11:15:51;;;;;;;11.20;4.50;;;;;;;8.83;100.00;100898.29;106118;1295;22566;-78
2023/03/13 11:18:28;;;;;;;12.00;4.70;;;;;;;8.66;100.00;100941.90;106628;1290;22677;-76
2023/03/13 11:21:04;;;;;;;9.70;4.50;;;;;;;8.40;100.00;100971.34;105975;1290;22545;-72
2023/03/13 11:23:49;;;;;;;11.80;4.00;;;;;;;8.09;100.00;100992.64;105494;1293;26535;-69
2023/03/13 11:26:21;;;;;;;7.10;4.20;;;;;;;7.95;100.00;100985.96;105643;1292;25359;-68
2023/03/13 11:28:58;;;;;;;8.50;4.20;;;;;;;7.95;100.00;100978.26;105591;1296;25520;-70
2023/03/13 11:31:32;;;;;;;7.90;4.40;;;;;;;8.01;100.00;100985.80;105483;1289;22550;-77
2023/03/13 11:34:17;;;;;;;9.10;4.50;;;;;;;7.91;100.00;100993.62;105570;1288;25517;-70
2023/03/13 11:36:55;;;;;;;14.90;5.80;;;;;;;7.70;100.00;101002.55;105605;1292;22583;-70
2023/03/13 11:39:43;;;;;;;16.20;5.70;;;;;;;7.69;100.00;100988.15;105626;1273;24321;-70
2023/03/13 11:42:37;;;;;;;11.60;4.90;;;;;;;7.65;100.00;101015.78;104924;1289;1002796;-71